Terminal Aerodrome Forecast
Issued by NWS Fort Wayne, IN

Home | Current Version | Previous Version | Text Only | Print | Product List | Glossary On
Versions: 1 2 3 4 5 6 7 8 9 10 11 12 13 14
000
FTUS43 KIWX 251900 AAA
TAFFWA
TAF AMD
KFWA 251953Z 2520/2618 09011G17KT 4SM -RA SCT009 BKN015
      TEMPO 2520/2522 2SM -RA BR BKN009
     FM252200 07011G17KT 5SM -RA BR OVC020
     FM260200 05011KT P6SM SCT025 BKN040
     FM260500 04008KT P6SM FEW040 SCT100
     FM261500 03011KT P6SM FEW040=

USA.gov is the U.S. government's official web portal to all federal, state and local government web resources and services.